sensor_id;sensor_type;location;lat;lon;timestamp;P1;durP1;ratioP1;P2;durP2;ratioP2
8474;SDS011;4274;52.012;8.448;2023-04-01T00:00:28;49.90;;;5.93;;
8474;SDS011;4274;52.012;8.448;2023-04-01T00:02:54;47.47;;;4.80;;
8474;SDS011;4274;52.012;8.448;2023-04-01T00:05:20;45.80;;;6.00;;
8474;SDS011;4274;52.012;8.448;2023-04-01T00:07:46;49.40;;;5.57;;
8474;SDS011;4274;52.012;8.448;2023-04-01T00:10:12;50.17;;;5.87;;
8474;SDS011;4274;52.012;8.448;2023-04-01T00:12:38;52.33;;;5.90;;
8474;SDS011;4274;52.012;8.448;2023-04-01T00:15:06;55.43;;;7.40;;
8474;SDS011;4274;52.012;8.448;2023-04-01T00:17:32;48.63;;;6.30;;
8474;SDS011;4274;52.012;8.448;2023-04-01T00:19:58;45.90;;;5.93;;
8474;SDS011;4274;52.012;8.448;2023-04-01T00:22:24;46.77;;;4.60;;
8474;SDS011;4274;52.012;8.448;2023-04-01T00:24:51;50.47;;;3.80;;
8474;SDS011;4274;52.012;8.448;2023-04-01T00:27:16;42.80;;;3.70;;
8474;SDS011;4274;52.012;8.448;2023-04-01T00:29:43;42.47;;;3.60;;
8474;SDS011;4274;52.012;8.448;2023-04-01T00:32:09;42.20;;;3.27;;
8474;SDS011;4274;52.012;8.448;2023-04-01T00:34:35;43.37;;;3.10;;
8474;SDS011;4274;52.012;8.448;2023-04-01T00:37:01;44.33;;;2.90;;
8474;SDS011;4274;52.012;8.448;2023-04-01T00:39:30;46.90;;;2.93;;
8474;SDS011;4274;52.012;8.448;2023-04-01T00:41:57;40.53;;;2.77;;
8474;SDS011;4274;52.012;8.448;2023-04-01T00:44:24;40.97;;;2.57;;
8474;SDS011;4274;52.012;8.448;2023-04-01T00:46:57;42.20;;;2.60;;
8474;SDS011;4274;52.012;8.448;2023-04-01T00:49:28;44.53;;;2.80;;
8474;SDS011;4274;52.012;8.448;2023-04-01T00:51:56;40.83;;;2.70;;
8474;SDS011;4274;52.012;8.448;2023-04-01T00:54:24;41.50;;;2.50;;
8474;SDS011;4274;52.012;8.448;2023-04-01T00:57:00;41.40;;;2.53;;
8474;SDS011;4274;52.012;8.448;2023-04-01T00:59:32;42.40;;;2.70;;
8474;SDS011;4274;52.012;8.448;2023-04-01T01:02:01;44.93;;;3.07;;
8474;SDS011;4274;52.012;8.448;2023-04-01T01:04:29;41.40;;;2.60;;
8474;SDS011;4274;52.012;8.448;2023-04-01T01:09:36;44.23;;;2.70;;
8474;SDS011;4274;52.012;8.448;2023-04-01T01:17:31;40.40;;;2.73;;
8474;SDS011;4274;52.012;8.448;2023-04-01T01:29:02;40.07;;;2.40;;
8474;SDS011;4274;52.012;8.448;2023-04-01T01:37:14;43.23;;;2.60;;
8474;SDS011;4274;52.012;8.448;2023-04-01T01:39:43;41.47;;;2.50;;
8474;SDS011;4274;52.012;8.448;2023-04-01T01:42:11;42.93;;;2.60;;
8474;SDS011;4274;52.012;8.448;2023-04-01T01:44:40;41.07;;;2.17;;
8474;SDS011;4274;52.012;8.448;2023-04-01T01:47:09;39.80;;;2.30;;
8474;SDS011;4274;52.012;8.448;2023-04-01T01:49:35;41.20;;;2.43;;
8474;SDS011;4274;52.012;8.448;2023-04-01T01:52:01;42.00;;;2.70;;
8474;SDS011;4274;52.012;8.448;2023-04-01T01:54:28;42.03;;;2.70;;
8474;SDS011;4274;52.012;8.448;2023-04-01T01:57:01;43.60;;;3.20;;
8474;SDS011;4274;52.012;8.448;2023-04-01T01:59:31;43.27;;;2.43;;
8474;SDS011;4274;52.012;8.448;2023-04-01T02:01:59;42.30;;;2.50;;
8474;SDS011;4274;52.012;8.448;2023-04-01T02:04:32;40.30;;;2.50;;
8474;SDS011;4274;52.012;8.448;2023-04-01T02:07:04;41.90;;;2.90;;
8474;SDS011;4274;52.012;8.448;2023-04-01T02:09:34;41.10;;;2.60;;
8474;SDS011;4274;52.012;8.448;2023-04-01T02:12:03;40.40;;;2.60;;
8474;SDS011;4274;52.012;8.448;2023-04-01T02:14:51;40.77;;;2.33;;
8474;SDS011;4274;52.012;8.448;2023-04-01T02:17:21;40.30;;;2.47;;
8474;SDS011;4274;52.012;8.448;2023-04-01T02:22:24;39.33;;;2.30;;
8474;SDS011;4274;52.012;8.448;2023-04-01T02:24:54;42.40;;;2.23;;
8474;SDS011;4274;52.012;8.448;2023-04-01T02:27:24;39.33;;;2.10;;
8474;SDS011;4274;52.012;8.448;2023-04-01T02:29:51;43.90;;;3.23;;
8474;SDS011;4274;52.012;8.448;2023-04-01T02:32:17;41.70;;;2.30;;
8474;SDS011;4274;52.012;8.448;2023-04-01T02:34:45;45.57;;;2.77;;
8474;SDS011;4274;52.012;8.448;2023-04-01T02:37:11;42.23;;;3.27;;
8474;SDS011;4274;52.012;8.448;2023-04-01T02:39:38;40.60;;;2.47;;
8474;SDS011;4274;52.012;8.448;2023-04-01T02:42:03;43.73;;;2.60;;
8474;SDS011;4274;52.012;8.448;2023-04-01T02:44:29;40.53;;;2.80;;
8474;SDS011;4274;52.012;8.448;2023-04-01T02:46:55;41.10;;;2.90;;
8474;SDS011;4274;52.012;8.448;2023-04-01T02:49:20;43.93;;;3.57;;
8474;SDS011;4274;52.012;8.448;2023-04-01T02:51:46;42.30;;;2.87;;
8474;SDS011;4274;52.012;8.448;2023-04-01T02:54:12;41.87;;;3.03;;
8474;SDS011;4274;52.012;8.448;2023-04-01T02:56:37;41.63;;;2.77;;
8474;SDS011;4274;52.012;8.448;2023-04-01T02:59:03;45.10;;;2.93;;
8474;SDS011;4274;52.012;8.448;2023-04-01T03:01:28;42.50;;;2.70;;
8474;SDS011;4274;52.012;8.448;2023-04-01T03:03:54;40.07;;;2.33;;
8474;SDS011;4274;52.012;8.448;2023-04-01T03:06:20;41.00;;;2.40;;
8474;SDS011;4274;52.012;8.448;2023-04-01T03:08:45;40.60;;;2.30;;
8474;SDS011;4274;52.012;8.448;2023-04-01T03:11:11;40.17;;;2.40;;
8474;SDS011;4274;52.012;8.448;2023-04-01T03:13:37;39.47;;;2.20;;
8474;SDS011;4274;52.012;8.448;2023-04-01T03:16:03;41.17;;;2.30;;
8474;SDS011;4274;52.012;8.448;2023-04-01T03:18:29;41.67;;;2.60;;
8474;SDS011;4274;52.012;8.448;2023-04-01T03:20:54;40.77;;;2.13;;
8474;SDS011;4274;52.012;8.448;2023-04-01T03:23:20;39.40;;;2.20;;
8474;SDS011;4274;52.012;8.448;2023-04-01T03:25:46;41.33;;;2.37;;
8474;SDS011;4274;52.012;8.448;2023-04-01T03:28:12;40.60;;;2.53;;
8474;SDS011;4274;52.012;8.448;2023-04-01T03:30:38;43.47;;;2.30;;
8474;SDS011;4274;52.012;8.448;2023-04-01T03:33:04;41.93;;;2.37;;
8474;SDS011;4274;52.012;8.448;2023-04-01T03:35:30;40.50;;;2.47;;
8474;SDS011;4274;52.012;8.448;2023-04-01T03:37:56;40.27;;;2.50;;
8474;SDS011;4274;52.012;8.448;2023-04-01T03:40:22;40.77;;;2.90;;
8474;SDS011;4274;52.012;8.448;2023-04-01T03:42:48;43.40;;;3.00;;
8474;SDS011;4274;52.012;8.448;2023-04-01T03:45:14;41.90;;;2.93;;
8474;SDS011;4274;52.012;8.448;2023-04-01T03:47:40;42.10;;;2.77;;
8474;SDS011;4274;52.012;8.448;2023-04-01T03:50:06;42.33;;;3.20;;
8474;SDS011;4274;52.012;8.448;2023-04-01T03:52:32;40.50;;;2.70;;
8474;SDS011;4274;52.012;8.448;2023-04-01T03:54:58;43.20;;;2.57;;
8474;SDS011;4274;52.012;8.448;2023-04-01T03:57:24;42.97;;;2.50;;
8474;SDS011;4274;52.012;8.448;2023-04-01T03:59:49;39.70;;;2.20;;
8474;SDS011;4274;52.012;8.448;2023-04-01T04:02:15;40.63;;;2.13;;
8474;SDS011;4274;52.012;8.448;2023-04-01T04:04:42;39.80;;;2.00;;
8474;SDS011;4274;52.012;8.448;2023-04-01T04:07:07;39.40;;;2.00;;
8474;SDS011;4274;52.012;8.448;2023-04-01T04:09:33;41.70;;;2.13;;
8474;SDS011;4274;52.012;8.448;2023-04-01T04:11:59;39.40;;;2.00;;
8474;SDS011;4274;52.012;8.448;2023-04-01T04:14:25;39.77;;;2.20;;
8474;SDS011;4274;52.012;8.448;2023-04-01T04:16:51;38.87;;;1.97;;
8474;SDS011;4274;52.012;8.448;2023-04-01T04:19:17;41.60;;;2.10;;
8474;SDS011;4274;52.012;8.448;2023-04-01T04:21:42;39.90;;;2.37;;
8474;SDS011;4274;52.012;8.448;2023-04-01T04:24:08;39.27;;;2.03;;
8474;SDS011;4274;52.012;8.448;2023-04-01T04:26:35;40.57;;;2.17;;
8474;SDS011;4274;52.012;8.448;2023-04-01T04:29:01;41.17;;;2.20;;
8474;SDS011;4274;52.012;8.448;2023-04-01T04:31:27;39.47;;;2.40;;
8474;SDS011;4274;52.012;8.448;2023-04-01T04:33:53;40.60;;;2.20;;
8474;SDS011;4274;52.012;8.448;2023-04-01T04:36:19;39.70;;;2.13;;
8474;SDS011;4274;52.012;8.448;2023-04-01T04:38:45;39.50;;;2.10;;
8474;SDS011;4274;52.012;8.448;2023-04-01T04:41:11;38.93;;;2.07;;
8474;SDS011;4274;52.012;8.448;2023-04-01T04:43:39;41.70;;;2.00;;
8474;SDS011;4274;52.012;8.448;2023-04-01T04:46:06;40.40;;;2.30;;
8474;SDS011;4274;52.012;8.448;2023-04-01T04:48:33;38.93;;;2.03;;
8474;SDS011;4274;52.012;8.448;2023-04-01T04:50:58;40.03;;;1.90;;
8474;SDS011;4274;52.012;8.448;2023-04-01T04:53:24;39.60;;;2.00;;
8474;SDS011;4274;52.012;8.448;2023-04-01T04:55:51;42.47;;;2.10;;
8474;SDS011;4274;52.012;8.448;2023-04-01T04:58:17;39.80;;;2.10;;
8474;SDS011;4274;52.012;8.448;2023-04-01T05:00:43;41.67;;;2.17;;
8474;SDS011;4274;52.012;8.448;2023-04-01T05:03:09;42.97;;;2.67;;
8474;SDS011;4274;52.012;8.448;2023-04-01T05:05:35;41.10;;;2.13;;
8474;SDS011;4274;52.012;8.448;2023-04-01T05:08:01;39.00;;;2.10;;
8474;SDS011;4274;52.012;8.448;2023-04-01T05:10:27;40.80;;;2.13;;
8474;SDS011;4274;52.012;8.448;2023-04-01T05:12:53;41.30;;;2.20;;
8474;SDS011;4274;52.012;8.448;2023-04-01T05:15:19;40.17;;;2.20;;
8474;SDS011;4274;52.012;8.448;2023-04-01T05:17:44;39.20;;;2.20;;
8474;SDS011;4274;52.012;8.448;2023-04-01T05:20:11;39.27;;;2.10;;
8474;SDS011;4274;52.012;8.448;2023-04-01T05:22:38;38.97;;;2.33;;
8474;SDS011;4274;52.012;8.448;2023-04-01T05:25:03;40.00;;;2.10;;
8474;SDS011;4274;52.012;8.448;2023-04-01T05:27:29;41.20;;;2.20;;
8474;SDS011;4274;52.012;8.448;2023-04-01T05:29:55;38.90;;;2.20;;
8474;SDS011;4274;52.012;8.448;2023-04-01T05:32:21;39.17;;;2.23;;
8474;SDS011;4274;52.012;8.448;2023-04-01T05:34:46;40.37;;;2.13;;
8474;SDS011;4274;52.012;8.448;2023-04-01T05:37:15;39.10;;;2.30;;
8474;SDS011;4274;52.012;8.448;2023-04-01T05:39:41;40.40;;;2.43;;
8474;SDS011;4274;52.012;8.448;2023-04-01T05:42:07;39.37;;;2.20;;
8474;SDS011;4274;52.012;8.448;2023-04-01T05:44:33;42.93;;;2.60;;
8474;SDS011;4274;52.012;8.448;2023-04-01T05:46:59;40.67;;;3.00;;
8474;SDS011;4274;52.012;8.448;2023-04-01T05:49:25;45.00;;;2.87;;
8474;SDS011;4274;52.012;8.448;2023-04-01T05:51:50;39.60;;;2.57;;
8474;SDS011;4274;52.012;8.448;2023-04-01T05:54:16;40.60;;;2.20;;
8474;SDS011;4274;52.012;8.448;2023-04-01T05:56:42;43.57;;;2.53;;
8474;SDS011;4274;52.012;8.448;2023-04-01T05:59:08;41.27;;;2.93;;
8474;SDS011;4274;52.012;8.448;2023-04-01T06:01:35;40.10;;;2.73;;
8474;SDS011;4274;52.012;8.448;2023-04-01T06:04:01;39.70;;;2.60;;
8474;SDS011;4274;52.012;8.448;2023-04-01T06:06:27;41.97;;;2.50;;
8474;SDS011;4274;52.012;8.448;2023-04-01T06:08:55;39.77;;;2.50;;
8474;SDS011;4274;52.012;8.448;2023-04-01T06:11:32;39.10;;;2.10;;
8474;SDS011;4274;52.012;8.448;2023-04-01T06:14:18;39.30;;;2.23;;
8474;SDS011;4274;52.012;8.448;2023-04-01T06:22:22;40.60;;;2.20;;
8474;SDS011;4274;52.012;8.448;2023-04-01T06:32:57;40.67;;;3.00;;
8474;SDS011;4274;52.012;8.448;2023-04-01T06:46:44;41.47;;;2.87;;
8474;SDS011;4274;52.012;8.448;2023-04-01T06:51:53;41.57;;;2.53;;
8474;SDS011;4274;52.012;8.448;2023-04-01T06:54:31;39.37;;;2.20;;
8474;SDS011;4274;52.012;8.448;2023-04-01T06:57:02;40.23;;;2.63;;
8474;SDS011;4274;52.012;8.448;2023-04-01T06:59:58;41.40;;;2.23;;
8474;SDS011;4274;52.012;8.448;2023-04-01T07:02:34;40.43;;;2.20;;
8474;SDS011;4274;52.012;8.448;2023-04-01T07:05:06;39.50;;;2.40;;
8474;SDS011;4274;52.012;8.448;2023-04-01T07:07:35;39.77;;;2.30;;
8474;SDS011;4274;52.012;8.448;2023-04-01T07:10:13;40.80;;;2.20;;
8474;SDS011;4274;52.012;8.448;2023-04-01T07:12:46;40.27;;;2.30;;
8474;SDS011;4274;52.012;8.448;2023-04-01T07:15:25;39.10;;;2.13;;
8474;SDS011;4274;52.012;8.448;2023-04-01T07:18:11;38.77;;;2.10;;
8474;SDS011;4274;52.012;8.448;2023-04-01T07:20:42;40.47;;;2.43;;
8474;SDS011;4274;52.012;8.448;2023-04-01T07:23:16;40.50;;;2.73;;
8474;SDS011;4274;52.012;8.448;2023-04-01T07:25:52;40.70;;;2.53;;
8474;SDS011;4274;52.012;8.448;2023-04-01T07:28:20;40.70;;;2.70;;
8474;SDS011;4274;52.012;8.448;2023-04-01T07:37:24;40.90;;;2.50;;
8474;SDS011;4274;52.012;8.448;2023-04-01T07:45:04;39.47;;;2.80;;
8474;SDS011;4274;52.012;8.448;2023-04-01T07:50:28;42.17;;;3.07;;
8474;SDS011;4274;52.012;8.448;2023-04-01T07:55:45;40.20;;;3.03;;
8474;SDS011;4274;52.012;8.448;2023-04-01T07:58:32;41.03;;;3.10;;
8474;SDS011;4274;52.012;8.448;2023-04-01T08:03:57;42.00;;;3.33;;
8474;SDS011;4274;52.012;8.448;2023-04-01T08:15:04;42.20;;;2.87;;
8474;SDS011;4274;52.012;8.448;2023-04-01T08:23:19;41.20;;;3.10;;
8474;SDS011;4274;52.012;8.448;2023-04-01T08:28:40;44.60;;;3.70;;
8474;SDS011;4274;52.012;8.448;2023-04-01T08:31:16;41.47;;;3.10;;
8474;SDS011;4274;52.012;8.448;2023-04-01T08:33:49;41.27;;;3.30;;
8474;SDS011;4274;52.012;8.448;2023-04-01T08:36:34;41.07;;;3.57;;
8474;SDS011;4274;52.012;8.448;2023-04-01T08:39:17;43.53;;;3.10;;
8474;SDS011;4274;52.012;8.448;2023-04-01T08:53:06;43.43;;;3.20;;
8474;SDS011;4274;52.012;8.448;2023-04-01T08:58:48;41.17;;;3.07;;
8474;SDS011;4274;52.012;8.448;2023-04-01T09:17:59;41.37;;;3.37;;
8474;SDS011;4274;52.012;8.448;2023-04-01T09:22:35;40.27;;;2.67;;
8474;SDS011;4274;52.012;8.448;2023-04-01T09:25:15;45.10;;;3.33;;
8474;SDS011;4274;52.012;8.448;2023-04-01T09:30:31;41.03;;;3.30;;
8474;SDS011;4274;52.012;8.448;2023-04-01T09:33:17;43.80;;;3.13;;
8474;SDS011;4274;52.012;8.448;2023-04-01T09:36:17;45.77;;;3.60;;
8474;SDS011;4274;52.012;8.448;2023-04-01T09:38:56;41.90;;;2.87;;
8474;SDS011;4274;52.012;8.448;2023-04-01T09:41:41;42.20;;;3.50;;
8474;SDS011;4274;52.012;8.448;2023-04-01T09:44:36;41.97;;;3.53;;
8474;SDS011;4274;52.012;8.448;2023-04-01T09:55:59;41.30;;;3.50;;
8474;SDS011;4274;52.012;8.448;2023-04-01T09:58:33;42.00;;;3.37;;
8474;SDS011;4274;52.012;8.448;2023-04-01T10:09:53;43.57;;;3.40;;
8474;SDS011;4274;52.012;8.448;2023-04-01T10:21:24;44.53;;;2.77;;
8474;SDS011;4274;52.012;8.448;2023-04-01T10:40:12;41.83;;;2.60;;
8474;SDS011;4274;52.012;8.448;2023-04-01T11:05:18;42.30;;;4.00;;
8474;SDS011;4274;52.012;8.448;2023-04-01T11:11:18;42.83;;;4.00;;
8474;SDS011;4274;52.012;8.448;2023-04-01T11:16:36;42.60;;;3.67;;
8474;SDS011;4274;52.012;8.448;2023-04-01T11:30:22;43.60;;;3.53;;
8474;SDS011;4274;52.012;8.448;2023-04-01T11:41:32;41.80;;;3.60;;
8474;SDS011;4274;52.012;8.448;2023-04-01T12:09:48;41.03;;;3.10;;
8474;SDS011;4274;52.012;8.448;2023-04-01T12:18:05;40.67;;;2.50;;
8474;SDS011;4274;52.012;8.448;2023-04-01T12:40:20;41.70;;;2.83;;
8474;SDS011;4274;52.012;8.448;2023-04-01T12:49:06;41.20;;;3.20;;
8474;SDS011;4274;52.012;8.448;2023-04-01T12:57:28;41.13;;;3.40;;
8474;SDS011;4274;52.012;8.448;2023-04-01T13:05:25;41.90;;;4.10;;
8474;SDS011;4274;52.012;8.448;2023-04-01T13:11:09;40.33;;;3.00;;
8474;SDS011;4274;52.012;8.448;2023-04-01T13:16:06;43.17;;;3.80;;
8474;SDS011;4274;52.012;8.448;2023-04-01T13:18:52;43.90;;;4.10;;
8474;SDS011;4274;52.012;8.448;2023-04-01T13:27:09;42.57;;;4.30;;
8474;SDS011;4274;52.012;8.448;2023-04-01T13:33:02;44.10;;;5.20;;
8474;SDS011;4274;52.012;8.448;2023-04-01T13:35:41;42.57;;;4.03;;
8474;SDS011;4274;52.012;8.448;2023-04-01T13:38:37;42.57;;;3.93;;
8474;SDS011;4274;52.012;8.448;2023-04-01T13:49:07;41.40;;;3.70;;
8474;SDS011;4274;52.012;8.448;2023-04-01T14:02:46;42.07;;;4.70;;
8474;SDS011;4274;52.012;8.448;2023-04-01T14:22:50;43.00;;;5.43;;
8474;SDS011;4274;52.012;8.448;2023-04-01T14:45:02;42.87;;;5.40;;
8474;SDS011;4274;52.012;8.448;2023-04-01T15:00:41;43.60;;;6.17;;
8474;SDS011;4274;52.012;8.448;2023-04-01T15:13:46;46.50;;;7.03;;
8474;SDS011;4274;52.012;8.448;2023-04-01T15:19:31;42.57;;;5.10;;
8474;SDS011;4274;52.012;8.448;2023-04-01T15:38:37;46.20;;;6.70;;
8474;SDS011;4274;52.012;8.448;2023-04-01T15:41:24;42.80;;;5.57;;
8474;SDS011;4274;52.012;8.448;2023-04-01T15:49:52;42.80;;;5.07;;
8474;SDS011;4274;52.012;8.448;2023-04-01T16:00:33;43.80;;;5.20;;
8474;SDS011;4274;52.012;8.448;2023-04-01T16:08:48;45.07;;;7.07;;
8474;SDS011;4274;52.012;8.448;2023-04-01T16:19:33;41.17;;;4.10;;
8474;SDS011;4274;52.012;8.448;2023-04-01T16:22:18;41.87;;;4.20;;
8474;SDS011;4274;52.012;8.448;2023-04-01T16:24:58;41.20;;;3.80;;
8474;SDS011;4274;52.012;8.448;2023-04-01T16:27:50;42.17;;;4.40;;
8474;SDS011;4274;52.012;8.448;2023-04-01T16:36:21;42.30;;;4.60;;
8474;SDS011;4274;52.012;8.448;2023-04-01T16:41:31;41.17;;;3.50;;
8474;SDS011;4274;52.012;8.448;2023-04-01T16:44:18;40.80;;;3.17;;
8474;SDS011;4274;52.012;8.448;2023-04-01T16:47:10;44.40;;;3.20;;
8474;SDS011;4274;52.012;8.448;2023-04-01T16:49:42;41.13;;;3.20;;
8474;SDS011;4274;52.012;8.448;2023-04-01T16:52:34;40.87;;;3.03;;
8474;SDS011;4274;52.012;8.448;2023-04-01T16:55:18;41.53;;;3.23;;
8474;SDS011;4274;52.012;8.448;2023-04-01T16:57:48;40.50;;;2.80;;
8474;SDS011;4274;52.012;8.448;2023-04-01T17:00:24;41.27;;;2.90;;
8474;SDS011;4274;52.012;8.448;2023-04-01T17:02:57;40.60;;;3.03;;
8474;SDS011;4274;52.012;8.448;2023-04-01T17:05:40;40.80;;;2.83;;
8474;SDS011;4274;52.012;8.448;2023-04-01T17:08:30;48.93;;;8.53;;
8474;SDS011;4274;52.012;8.448;2023-04-01T17:13:48;44.30;;;5.23;;
8474;SDS011;4274;52.012;8.448;2023-04-01T17:19:22;40.60;;;3.30;;
8474;SDS011;4274;52.012;8.448;2023-04-01T17:22:53;41.47;;;3.87;;
8474;SDS011;4274;52.012;8.448;2023-04-01T17:25:07;40.50;;;3.80;;
8474;SDS011;4274;52.012;8.448;2023-04-01T17:27:36;41.63;;;4.80;;
8474;SDS011;4274;52.012;8.448;2023-04-01T17:30:24;41.90;;;4.40;;
8474;SDS011;4274;52.012;8.448;2023-04-01T17:35:51;45.00;;;4.80;;
8474;SDS011;4274;52.012;8.448;2023-04-01T17:44:15;40.77;;;3.63;;
8474;SDS011;4274;52.012;8.448;2023-04-01T17:47:21;42.00;;;4.90;;
8474;SDS011;4274;52.012;8.448;2023-04-01T18:00:35;42.77;;;5.80;;
8474;SDS011;4274;52.012;8.448;2023-04-01T18:24:56;44.67;;;6.80;;
8474;SDS011;4274;52.012;8.448;2023-04-01T18:27:24;47.70;;;9.60;;
8474;SDS011;4274;52.012;8.448;2023-04-01T18:32:35;42.90;;;5.57;;
8474;SDS011;4274;52.012;8.448;2023-04-01T18:41:07;43.70;;;6.90;;
8474;SDS011;4274;52.012;8.448;2023-04-01T18:49:40;43.77;;;6.83;;
8474;SDS011;4274;52.012;8.448;2023-04-01T18:57:39;56.90;;;15.83;;
8474;SDS011;4274;52.012;8.448;2023-04-01T19:00:14;42.93;;;6.47;;
8474;SDS011;4274;52.012;8.448;2023-04-01T19:05:25;51.23;;;10.60;;
8474;SDS011;4274;52.012;8.448;2023-04-01T19:19:04;42.20;;;4.70;;
8474;SDS011;4274;52.012;8.448;2023-04-01T19:21:47;43.03;;;4.90;;
8474;SDS011;4274;52.012;8.448;2023-04-01T19:24:22;41.60;;;4.90;;
8474;SDS011;4274;52.012;8.448;2023-04-01T19:38:39;42.57;;;5.73;;
8474;SDS011;4274;52.012;8.448;2023-04-01T19:41:20;42.17;;;5.37;;
8474;SDS011;4274;52.012;8.448;2023-04-01T19:44:07;42.57;;;4.70;;
8474;SDS011;4274;52.012;8.448;2023-04-01T19:47:15;41.40;;;4.90;;
8474;SDS011;4274;52.012;8.448;2023-04-01T19:52:36;43.10;;;6.47;;
8474;SDS011;4274;52.012;8.448;2023-04-01T19:55:20;43.50;;;6.30;;
8474;SDS011;4274;52.012;8.448;2023-04-01T19:57:49;44.03;;;7.37;;
8474;SDS011;4274;52.012;8.448;2023-04-01T20:00:30;44.47;;;7.50;;
8474;SDS011;4274;52.012;8.448;2023-04-01T20:03:15;44.07;;;7.17;;
8474;SDS011;4274;52.012;8.448;2023-04-01T20:12:46;46.20;;;6.83;;
8474;SDS011;4274;52.012;8.448;2023-04-01T20:15:41;43.03;;;6.90;;
8474;SDS011;4274;52.012;8.448;2023-04-01T20:20:39;46.77;;;9.00;;
8474;SDS011;4274;52.012;8.448;2023-04-01T20:30:47;44.00;;;7.03;;
8474;SDS011;4274;52.012;8.448;2023-04-01T20:50:28;45.17;;;7.33;;
8474;SDS011;4274;52.012;8.448;2023-04-01T21:15:03;44.90;;;8.10;;
8474;SDS011;4274;52.012;8.448;2023-04-01T21:20:34;44.40;;;7.23;;
8474;SDS011;4274;52.012;8.448;2023-04-01T21:23:37;43.67;;;6.90;;
8474;SDS011;4274;52.012;8.448;2023-04-01T21:31:43;43.57;;;6.70;;
8474;SDS011;4274;52.012;8.448;2023-04-01T21:59:10;42.97;;;6.00;;
8474;SDS011;4274;52.012;8.448;2023-04-01T22:02:25;44.80;;;6.70;;
8474;SDS011;4274;52.012;8.448;2023-04-01T22:05:17;42.87;;;5.70;;
8474;SDS011;4274;52.012;8.448;2023-04-01T22:07:56;41.77;;;5.67;;
8474;SDS011;4274;52.012;8.448;2023-04-01T22:18:36;41.60;;;5.43;;
8474;SDS011;4274;52.012;8.448;2023-04-01T22:32:16;42.13;;;5.57;;
8474;SDS011;4274;52.012;8.448;2023-04-01T22:34:53;41.57;;;5.57;;
8474;SDS011;4274;52.012;8.448;2023-04-01T22:40:24;41.17;;;5.00;;
8474;SDS011;4274;52.012;8.448;2023-04-01T22:43:01;43.20;;;5.10;;
8474;SDS011;4274;52.012;8.448;2023-04-01T22:53:48;39.50;;;4.10;;
8474;SDS011;4274;52.012;8.448;2023-04-01T22:56:47;40.50;;;3.77;;
8474;SDS011;4274;52.012;8.448;2023-04-01T23:02:23;39.07;;;3.90;;
8474;SDS011;4274;52.012;8.448;2023-04-01T23:04:57;39.37;;;4.07;;
8474;SDS011;4274;52.012;8.448;2023-04-01T23:09:58;41.03;;;5.60;;
8474;SDS011;4274;52.012;8.448;2023-04-01T23:12:27;40.97;;;5.07;;
8474;SDS011;4274;52.012;8.448;2023-04-01T23:14:56;41.53;;;5.50;;
8474;SDS011;4274;52.012;8.448;2023-04-01T23:17:46;42.93;;;5.27;;
8474;SDS011;4274;52.012;8.448;2023-04-01T23:23:15;45.07;;;5.57;;
8474;SDS011;4274;52.012;8.448;2023-04-01T23:26:00;41.70;;;5.37;;
8474;SDS011;4274;52.012;8.448;2023-04-01T23:29:00;40.30;;;4.90;;
8474;SDS011;4274;52.012;8.448;2023-04-01T23:36:39;40.23;;;4.67;;
8474;SDS011;4274;52.012;8.448;2023-04-01T23:41:56;41.03;;;5.20;;
8474;SDS011;4274;52.012;8.448;2023-04-01T23:44:51;40.30;;;4.50;;
8474;SDS011;4274;52.012;8.448;2023-04-01T23:47:24;40.37;;;4.63;;
8474;SDS011;4274;52.012;8.448;2023-04-01T23:50:06;40.60;;;5.07;;
8474;SDS011;4274;52.012;8.448;2023-04-01T23:52:46;40.67;;;5.10;;
8474;SDS011;4274;52.012;8.448;2023-04-01T23:57:40;40.47;;;5.00;;
